createdAt,value
2019-02-27T00:00:43.794Z,27.17
2019-02-27T00:03:20.832Z,24.93
2019-02-27T00:05:53.142Z,25.33
2019-02-27T00:08:27.040Z,26.70
2019-02-27T00:10:58.555Z,25.30
2019-02-27T00:13:30.595Z,25.33
2019-02-27T00:16:02.628Z,25.80
2019-02-27T00:18:34.897Z,22.57
2019-02-27T00:21:11.045Z,18.63
2019-02-27T00:23:42.521Z,23.10
2019-02-27T00:26:14.514Z,19.27
2019-02-27T00:28:46.552Z,21.50
2019-02-27T00:31:19.004Z,23.30
2019-02-27T00:33:51.752Z,20.40
2019-02-27T00:36:23.740Z,18.13
2019-02-27T00:38:57.775Z,17.33
2019-02-27T00:41:29.462Z,19.47
2019-02-27T00:44:02.029Z,12.83
2019-02-27T00:46:34.169Z,15.73
2019-02-27T00:49:07.195Z,13.03
2019-02-27T00:51:39.559Z,22.87
2019-02-27T00:54:11.837Z,16.73
2019-02-27T00:56:45.018Z,18.60
2019-02-27T00:59:17.328Z,20.53
2019-02-27T01:01:49.457Z,17.27
2019-02-27T01:04:21.690Z,16.80
2019-02-27T01:06:54.499Z,15.70
2019-02-27T01:09:26.514Z,16.37
2019-02-27T01:11:58.520Z,18.40
2019-02-27T01:14:30.611Z,16.70
2019-02-27T01:17:03.253Z,25.70
2019-02-27T01:19:38.466Z,19.80
2019-02-27T01:22:08.732Z,18.53
2019-02-27T01:24:40.677Z,21.43
2019-02-27T01:27:12.805Z,18.33
2019-02-27T01:29:44.863Z,20.30
2019-02-27T01:32:22.034Z,19.63
2019-02-27T01:34:54.251Z,15.87
2019-02-27T01:37:31.257Z,21.53
2019-02-27T01:39:59.697Z,22.13
2019-02-27T01:42:32.820Z,19.97
2019-02-27T01:45:06.029Z,19.43
2019-02-27T01:47:37.402Z,19.97
2019-02-27T01:50:30.644Z,16.60
2019-02-27T01:53:09.315Z,21.93
2019-02-27T01:55:40.712Z,17.53
2019-02-27T01:58:12.319Z,18.83
2019-02-27T02:00:43.835Z,19.23
2019-02-27T02:03:16.031Z,23.40
2019-02-27T02:05:48.077Z,18.30
2019-02-27T02:08:20.253Z,23.07
2019-02-27T02:10:53.825Z,22.20
2019-02-27T02:13:36.072Z,20.50
2019-02-27T02:16:41.316Z,25.27
2019-02-27T02:19:54.282Z,21.90
2019-02-27T02:23:14.008Z,17.17
2019-02-27T02:26:32.149Z,24.27
2019-02-27T02:30:09.455Z,23.27
2019-02-27T02:33:05.890Z,18.53
2019-02-27T02:35:50.699Z,16.80
2019-02-27T02:39:06.608Z,14.57
2019-02-27T02:42:05.266Z,17.63
2019-02-27T02:45:13.598Z,15.67
2019-02-27T02:48:17.881Z,24.30
2019-02-27T02:51:29.857Z,15.67
2019-02-27T02:54:42.562Z,10.37
2019-02-27T02:57:37.101Z,14.63
2019-02-27T03:00:42.789Z,10.60
2019-02-27T03:03:26.115Z,9.20
2019-02-27T03:06:20.497Z,10.67
2019-02-27T03:09:33.169Z,6.10
2019-02-27T03:12:42.844Z,8.90
2019-02-27T03:15:57.324Z,9.70
2019-02-27T03:18:52.655Z,6.97
2019-02-27T03:22:03.093Z,11.17
2019-02-27T03:25:14.473Z,6.27
2019-02-27T03:28:07.542Z,7.53
2019-02-27T03:31:18.058Z,10.83
2019-02-27T03:34:20.344Z,9.93
2019-02-27T03:37:25.341Z,9.40
2019-02-27T03:40:22.329Z,11.47
2019-02-27T03:43:30.908Z,8.57
2019-02-27T03:46:30.228Z,8.30
2019-02-27T03:49:30.956Z,8.50
2019-02-27T03:52:28.223Z,7.60
2019-02-27T03:55:39.225Z,11.87
2019-02-27T03:58:37.566Z,6.73
2019-02-27T04:01:59.218Z,8.57
2019-02-27T04:05:17.081Z,10.50
2019-02-27T04:08:32.090Z,6.80
2019-02-27T04:11:05.865Z,12.83
2019-02-27T04:13:41.838Z,11.23
2019-02-27T04:16:13.198Z,11.10
2019-02-27T04:18:44.739Z,14.40
2019-02-27T04:21:16.488Z,12.20
2019-02-27T04:23:49.314Z,9.23
2019-02-27T04:26:21.103Z,9.10
2019-02-27T04:28:53.067Z,10.97
2019-02-27T04:31:29.682Z,11.67
2019-02-27T04:34:00.247Z,11.57
2019-02-27T04:36:30.769Z,12.57
2019-02-27T04:39:03.081Z,9.20
2019-02-27T04:41:36.191Z,12.40
2019-02-27T04:44:08.880Z,10.93
2019-02-27T04:46:40.715Z,12.57
2019-02-27T04:49:12.557Z,13.30
2019-02-27T04:51:44.043Z,11.57
2019-02-27T04:54:15.677Z,14.90
2019-02-27T04:56:47.069Z,16.50
2019-02-27T04:59:19.287Z,16.10
2019-02-27T05:01:51.174Z,15.50
2019-02-27T05:04:23.116Z,15.97
2019-02-27T05:06:54.580Z,14.30
2019-02-27T05:09:25.844Z,14.03
2019-02-27T05:11:57.375Z,16.37
2019-02-27T05:14:29.958Z,16.53
2019-02-27T05:17:01.300Z,19.20
2019-02-27T05:19:36.897Z,18.07
2019-02-27T05:22:05.799Z,17.90
2019-02-27T05:24:40.608Z,19.43
2019-02-27T05:27:10.818Z,25.03
2019-02-27T05:29:42.433Z,19.37
2019-02-27T05:32:13.941Z,22.53
2019-02-27T05:34:49.383Z,22.47
2019-02-27T05:37:18.454Z,24.87
2019-02-27T05:39:51.235Z,27.50
2019-02-27T05:42:23.272Z,28.73
2019-02-27T05:44:55.860Z,33.80
2019-02-27T05:47:27.920Z,35.83
2019-02-27T05:50:00.471Z,31.20
2019-02-27T05:52:32.170Z,32.60
2019-02-27T05:55:05.930Z,30.97
2019-02-27T05:57:37.252Z,30.47
2019-02-27T06:00:12.266Z,33.40
2019-02-27T06:02:45.060Z,32.13
2019-02-27T06:05:16.962Z,29.80
2019-02-27T06:07:49.519Z,29.83
2019-02-27T06:10:23.385Z,35.50
2019-02-27T06:12:55.507Z,31.00
2019-02-27T06:15:28.622Z,33.40
2019-02-27T06:18:00.275Z,32.10
2019-02-27T06:20:31.874Z,31.57
2019-02-27T06:23:08.573Z,27.33
2019-02-27T06:25:39.906Z,28.70
2019-02-27T06:28:11.668Z,28.97
2019-02-27T06:30:42.967Z,29.77
2019-02-27T06:33:14.437Z,31.53
2019-02-27T06:35:45.840Z,33.03
2019-02-27T06:38:17.394Z,30.50
2019-02-27T06:40:48.817Z,30.08
2019-02-27T06:43:20.639Z,31.47
2019-02-27T06:45:54.200Z,26.23
2019-02-27T06:48:26.677Z,27.33
2019-02-27T06:51:00.832Z,28.90
2019-02-27T06:53:37.361Z,28.00
2019-02-27T06:56:09.273Z,28.63
2019-02-27T06:58:40.704Z,25.97
2019-02-27T07:01:13.258Z,30.60
2019-02-27T07:03:45.298Z,27.40
2019-02-27T07:06:21.331Z,29.80
2019-02-27T07:08:50.236Z,29.13
2019-02-27T07:11:21.710Z,29.67
2019-02-27T07:13:53.807Z,32.90
2019-02-27T07:16:25.225Z,27.20
2019-02-27T07:18:56.692Z,28.47
2019-02-27T07:21:32.434Z,24.17
2019-02-27T07:24:01.297Z,23.87
2019-02-27T07:26:33.589Z,24.10
2019-02-27T07:29:05.120Z,20.40
2019-02-27T07:31:36.503Z,19.23
2019-02-27T07:34:07.883Z,23.47
2019-02-27T07:36:39.315Z,21.43
2019-02-27T07:39:11.331Z,17.93
2019-02-27T07:41:42.810Z,17.20
2019-02-27T07:44:14.608Z,16.57
2019-02-27T07:46:46.912Z,17.60
2019-02-27T07:49:18.522Z,18.27
2019-02-27T07:51:50.989Z,13.30
2019-02-27T07:54:22.405Z,14.47
2019-02-27T07:56:54.842Z,21.53
2019-02-27T07:59:26.249Z,15.10
2019-02-27T08:01:57.541Z,15.40
2019-02-27T08:04:30.961Z,15.43
2019-02-27T08:07:02.372Z,20.37
2019-02-27T08:09:33.569Z,15.27
2019-02-27T08:12:05.278Z,13.47
2019-02-27T08:14:37.264Z,13.63
2019-02-27T08:17:17.246Z,18.03
2019-02-27T08:19:45.389Z,12.47
2019-02-27T08:22:17.023Z,18.33
2019-02-27T08:24:49.103Z,13.07
2019-02-27T08:27:22.424Z,19.17
2019-02-27T08:29:54.672Z,17.03
2019-02-27T08:32:26.209Z,14.47
2019-02-27T08:34:58.037Z,15.70
2019-02-27T08:37:29.745Z,16.83
2019-02-27T08:40:01.036Z,18.13
2019-02-27T08:42:36.800Z,15.70
2019-02-27T08:45:07.223Z,15.23
2019-02-27T08:47:40.849Z,17.93
2019-02-27T08:50:13.990Z,20.50
2019-02-27T08:52:50.538Z,18.97
2019-02-27T08:55:22.077Z,17.77
2019-02-27T08:57:55.547Z,18.30
2019-02-27T09:00:25.764Z,21.37
2019-02-27T09:03:02.496Z,24.30
2019-02-27T09:05:32.540Z,20.23
2019-02-27T09:08:07.282Z,26.33
2019-02-27T09:10:38.492Z,27.07
2019-02-27T09:13:10.443Z,24.07
2019-02-27T09:15:41.811Z,35.10
2019-02-27T09:18:13.421Z,31.53
2019-02-27T09:20:44.698Z,36.50
2019-02-27T09:23:21.611Z,35.00
2019-02-27T09:25:57.262Z,36.87
2019-02-27T09:28:26.907Z,42.67
2019-02-27T09:31:03.298Z,45.27
2019-02-27T09:33:38.501Z,41.17
2019-02-27T09:36:07.967Z,41.63
2019-02-27T09:38:39.224Z,41.70
2019-02-27T09:41:12.394Z,42.57
2019-02-27T09:43:45.498Z,53.37
2019-02-27T09:46:19.259Z,45.53
2019-02-27T09:48:51.167Z,47.07
2019-02-27T09:51:22.904Z,51.87
2019-02-27T09:53:54.254Z,56.13
2019-02-27T09:56:26.053Z,59.20
2019-02-27T09:58:58.926Z,59.40
2019-02-27T10:01:34.420Z,58.07
2019-02-27T10:04:03.742Z,61.60
2019-02-27T10:06:34.973Z,62.20
2019-02-27T10:09:08.447Z,53.07
2019-02-27T10:11:41.345Z,58.30
2019-02-27T10:14:17.976Z,57.50
2019-02-27T10:16:50.908Z,55.80
2019-02-27T10:19:22.519Z,51.23
2019-02-27T10:21:53.962Z,53.87
2019-02-27T10:24:25.183Z,57.40
2019-02-27T10:26:56.670Z,57.63
2019-02-27T10:29:28.292Z,51.53
2019-02-27T10:32:00.777Z,54.70
2019-02-27T10:34:32.741Z,52.07
2019-02-27T10:37:04.459Z,54.50
2019-02-27T10:39:37.567Z,49.80
2019-02-27T10:42:09.550Z,56.50
2019-02-27T10:44:41.004Z,54.20
2019-02-27T10:47:12.777Z,47.80
2019-02-27T10:49:44.048Z,52.90
2019-02-27T10:52:15.500Z,50.97
2019-02-27T10:54:47.101Z,52.23
2019-02-27T10:57:18.831Z,49.83
2019-02-27T10:59:50.804Z,47.70
2019-02-27T11:02:23.573Z,45.77
2019-02-27T11:04:56.426Z,44.27
2019-02-27T11:07:28.157Z,47.87
2019-02-27T11:09:59.668Z,43.57
2019-02-27T11:12:31.572Z,44.60
2019-02-27T11:15:03.166Z,43.43
2019-02-27T11:17:35.199Z,49.33
2019-02-27T11:20:07.066Z,42.87
2019-02-27T11:22:48.204Z,42.90
2019-02-27T11:25:22.544Z,39.73
2019-02-27T11:27:54.086Z,42.00
2019-02-27T11:30:28.516Z,44.37
2019-02-27T11:33:05.422Z,45.37
2019-02-27T11:35:36.741Z,43.73
2019-02-27T11:38:08.347Z,44.87
2019-02-27T11:40:42.664Z,43.70
2019-02-27T11:43:13.685Z,47.43
2019-02-27T11:45:45.046Z,43.77
2019-02-27T11:48:16.747Z,42.07
2019-02-27T11:50:48.313Z,45.30
2019-02-27T11:53:20.076Z,44.57
2019-02-27T11:55:51.802Z,41.40
2019-02-27T11:58:23.541Z,44.60
2019-02-27T12:00:55.040Z,40.20
2019-02-27T12:03:26.660Z,47.53
2019-02-27T12:05:58.744Z,48.53
2019-02-27T12:08:30.665Z,35.27
2019-02-27T12:11:01.941Z,42.53
2019-02-27T12:13:34.913Z,48.53
2019-02-27T12:16:10.598Z,40.63
2019-02-27T12:18:41.635Z,38.37
2019-02-27T12:21:13.134Z,35.67
2019-02-27T12:23:45.889Z,40.07
2019-02-27T12:26:17.402Z,38.87
2019-02-27T12:28:52.468Z,38.30
2019-02-27T12:31:22.740Z,37.33
2019-02-27T12:33:54.989Z,34.83
2019-02-27T12:36:26.794Z,36.87
2019-02-27T12:38:58.078Z,35.67
2019-02-27T12:41:30.053Z,34.20
2019-02-27T12:44:08.766Z,41.33
2019-02-27T12:46:40.339Z,40.67
2019-02-27T12:49:12.483Z,41.23
2019-02-27T12:51:44.324Z,40.67
2019-02-27T12:54:21.075Z,37.60
2019-02-27T12:56:52.785Z,39.73
2019-02-27T12:59:24.171Z,37.60
2019-02-27T13:01:55.748Z,39.83
2019-02-27T13:04:27.401Z,37.13
2019-02-27T13:06:58.899Z,35.90
2019-02-27T13:09:30.507Z,38.87
2019-02-27T13:12:02.282Z,42.33
2019-02-27T13:14:34.304Z,40.10
2019-02-27T13:17:05.884Z,43.07
2019-02-27T13:19:39.046Z,38.47
2019-02-27T13:22:11.087Z,39.87
2019-02-27T13:24:42.383Z,42.20
2019-02-27T13:27:13.865Z,40.77
2019-02-27T13:29:45.729Z,38.90
2019-02-27T13:32:17.429Z,38.73
2019-02-27T13:34:49.106Z,42.90
2019-02-27T13:37:20.891Z,39.07
2019-02-27T13:39:53.110Z,39.67
2019-02-27T13:42:30.393Z,34.97
2019-02-27T13:45:02.098Z,36.80
2019-02-27T13:47:34.493Z,37.37
2019-02-27T13:50:06.738Z,43.50
2019-02-27T13:52:49.889Z,36.17
2019-02-27T13:55:19.171Z,39.97
2019-02-27T13:57:51.356Z,36.43
2019-02-27T14:00:26.130Z,33.10
2019-02-27T14:02:59.221Z,35.00
2019-02-27T14:05:35.109Z,37.37
2019-02-27T14:08:06.209Z,33.07
2019-02-27T14:10:40.042Z,38.30
2019-02-27T14:13:12.368Z,38.20
2019-02-27T14:15:43.903Z,31.80
2019-02-27T14:18:16.160Z,31.83
2019-02-27T14:20:50.475Z,32.70
2019-02-27T14:23:22.335Z,32.90
2019-02-27T14:25:54.029Z,31.57
2019-02-27T14:28:25.710Z,35.67
2019-02-27T14:30:57.048Z,33.27
2019-02-27T14:33:33.906Z,32.83
2019-02-27T14:36:08.211Z,29.93
2019-02-27T14:38:38.941Z,27.33
2019-02-27T14:41:14.084Z,34.37
2019-02-27T14:43:44.513Z,26.97
2019-02-27T14:46:17.847Z,34.33
2019-02-27T14:48:52.437Z,28.90
2019-02-27T14:51:22.897Z,25.10
2019-02-27T14:53:55.792Z,31.73
2019-02-27T14:56:27.644Z,28.37
2019-02-27T14:58:59.084Z,31.03
2019-02-27T15:01:31.790Z,29.63
2019-02-27T15:04:03.353Z,33.60
2019-02-27T15:06:34.970Z,31.73
2019-02-27T15:09:08.111Z,29.37
2019-02-27T15:11:40.078Z,30.57
2019-02-27T15:14:16.873Z,29.30
2019-02-27T15:16:49.215Z,32.53
2019-02-27T15:19:22.383Z,25.30
2019-02-27T15:21:54.157Z,34.30
2019-02-27T15:24:25.874Z,32.80
2019-02-27T15:26:57.313Z,29.70
2019-02-27T15:29:28.793Z,29.90
2019-02-27T15:32:00.702Z,28.83
2019-02-27T15:34:32.350Z,31.27
2019-02-27T15:37:04.288Z,29.67
2019-02-27T15:39:36.301Z,26.00
2019-02-27T15:42:09.536Z,32.77
2019-02-27T15:44:40.806Z,30.43
2019-02-27T15:47:12.616Z,28.30
2019-02-27T15:49:46.062Z,31.53
2019-02-27T15:52:17.862Z,33.67
2019-02-27T15:54:49.653Z,32.60
2019-02-27T15:57:21.475Z,29.33
2019-02-27T15:59:53.545Z,34.47
2019-02-27T16:02:25.050Z,32.67
2019-02-27T16:04:56.348Z,30.60
2019-02-27T16:07:27.985Z,29.27
2019-02-27T16:09:59.399Z,30.83
2019-02-27T16:12:31.273Z,30.80
2019-02-27T16:15:02.466Z,33.70
2019-02-27T16:17:34.363Z,35.47
2019-02-27T16:20:07.578Z,36.90
2019-02-27T16:22:39.476Z,35.93
2019-02-27T16:25:13.962Z,34.47
2019-02-27T16:27:45.675Z,29.93
2019-02-27T16:30:23.253Z,38.03
2019-02-27T16:32:54.707Z,32.40
2019-02-27T16:35:26.036Z,36.30
2019-02-27T16:37:57.994Z,36.57
2019-02-27T16:40:29.704Z,34.13
2019-02-27T16:43:02.611Z,37.20
2019-02-27T16:45:36.662Z,36.33
2019-02-27T16:48:07.153Z,36.63
2019-02-27T16:50:38.974Z,45.37
2019-02-27T16:53:18.668Z,35.73
2019-02-27T16:55:49.274Z,43.60
2019-02-27T16:58:21.026Z,39.83
2019-02-27T17:00:55.257Z,41.87
2019-02-27T17:03:26.935Z,39.93
2019-02-27T17:05:59.230Z,41.70
2019-02-27T17:08:33.027Z,43.60
2019-02-27T17:11:03.985Z,40.07
2019-02-27T17:13:35.571Z,44.37
2019-02-27T17:16:10.813Z,47.67
2019-02-27T17:18:40.464Z,44.93
2019-02-27T17:21:12.418Z,43.33
2019-02-27T17:23:48.979Z,49.10
2019-02-27T17:26:21.063Z,49.37
2019-02-27T17:28:52.857Z,48.63
2019-02-27T17:31:24.380Z,48.90
2019-02-27T17:33:56.173Z,47.07
2019-02-27T17:36:31.499Z,44.93
2019-02-27T17:39:00.844Z,50.60
2019-02-27T17:41:33.853Z,49.90
2019-02-27T17:44:05.421Z,53.40
2019-02-27T17:46:36.661Z,48.67
2019-02-27T17:49:08.162Z,48.97
2019-02-27T17:51:40.663Z,51.80
2019-02-27T17:54:12.839Z,54.20
2019-02-27T17:56:47.225Z,52.60
2019-02-27T17:59:18.765Z,41.50
2019-02-27T18:01:51.908Z,57.23
2019-02-27T18:04:23.508Z,45.47
2019-02-27T18:06:54.869Z,57.47
2019-02-27T18:09:27.219Z,52.67
2019-02-27T18:11:58.905Z,52.40
2019-02-27T18:14:30.274Z,53.43
2019-02-27T18:17:01.540Z,52.60
2019-02-27T18:19:32.983Z,49.37
2019-02-27T18:22:04.461Z,50.67
2019-02-27T18:24:35.962Z,55.57
2019-02-27T18:27:07.457Z,49.13
2019-02-27T18:29:41.272Z,51.07
2019-02-27T18:32:13.469Z,50.90
2019-02-27T18:34:44.762Z,52.50
2019-02-27T18:37:19.069Z,48.37
2019-02-27T18:39:49.943Z,52.07
2019-02-27T18:42:21.809Z,48.63
2019-02-27T18:44:53.588Z,50.43
2019-02-27T18:47:25.482Z,49.27
2019-02-27T18:49:56.996Z,51.30
2019-02-27T18:52:28.748Z,46.77
2019-02-27T18:55:00.257Z,47.57
2019-02-27T18:57:32.176Z,55.23
2019-02-27T19:00:03.889Z,48.30
2019-02-27T19:02:36.960Z,44.33
2019-02-27T19:05:09.367Z,47.73
2019-02-27T19:07:40.923Z,49.70
2019-02-27T19:10:14.888Z,49.67
2019-02-27T19:12:48.167Z,50.63
2019-02-27T19:15:22.201Z,46.27
2019-02-27T19:17:54.275Z,48.83
2019-02-27T19:20:27.479Z,49.03
2019-02-27T19:23:00.410Z,51.30
2019-02-27T19:25:34.658Z,52.03
2019-02-27T19:28:05.715Z,49.83
2019-02-27T19:30:38.696Z,55.37
2019-02-27T19:33:10.762Z,51.47
2019-02-27T19:35:42.331Z,46.33
2019-02-27T19:38:14.195Z,49.67
2019-02-27T19:40:45.732Z,45.53
2019-02-27T19:43:18.134Z,53.23
2019-02-27T19:45:50.892Z,54.93
2019-02-27T19:48:22.390Z,53.47
2019-02-27T19:50:54.037Z,47.47
2019-02-27T19:53:25.666Z,51.20
2019-02-27T19:56:00.723Z,45.23
2019-02-27T19:58:30.132Z,50.70
2019-02-27T20:01:01.441Z,50.93
2019-02-27T20:03:35.446Z,46.10
2019-02-27T20:06:07.049Z,51.90
2019-02-27T20:08:44.495Z,46.80
2019-02-27T20:11:12.123Z,49.83
2019-02-27T20:13:43.541Z,46.00
2019-02-27T20:16:17.771Z,49.50
2019-02-27T20:18:54.837Z,50.03
2019-02-27T20:21:21.294Z,48.90
2019-02-27T20:24:03.520Z,50.50
2019-02-27T20:26:44.099Z,46.83
2019-02-27T20:29:08.544Z,47.27
2019-02-27T20:31:40.684Z,45.93
2019-02-27T20:34:12.805Z,47.97
2019-02-27T20:36:44.311Z,43.17
2019-02-27T20:39:16.124Z,48.33
2019-02-27T20:41:48.023Z,44.00
2019-02-27T20:44:24.955Z,50.97
2019-02-27T20:46:56.762Z,47.73
2019-02-27T20:49:28.283Z,44.77
2019-02-27T20:51:59.938Z,43.77
2019-02-27T20:54:31.352Z,43.13
2019-02-27T20:57:03.004Z,48.33
2019-02-27T20:59:35.621Z,44.97
2019-02-27T21:02:07.137Z,42.77
2019-02-27T21:04:39.618Z,44.67
2019-02-27T21:07:11.600Z,48.50
2019-02-27T21:09:45.166Z,50.40
2019-02-27T21:12:15.968Z,49.80
2019-02-27T21:14:47.618Z,51.70
2019-02-27T21:17:21.789Z,48.83
2019-02-27T21:19:53.970Z,49.03
2019-02-27T21:22:27.757Z,45.43
2019-02-27T21:24:58.748Z,44.90
2019-02-27T21:27:32.986Z,49.93
2019-02-27T21:30:03.693Z,46.33
2019-02-27T21:32:37.146Z,47.77
2019-02-27T21:35:10.398Z,47.30
2019-02-27T21:37:45.572Z,47.77
2019-02-27T21:40:16.864Z,44.37
2019-02-27T21:42:50.937Z,49.50
2019-02-27T21:45:22.159Z,48.80
2019-02-27T21:47:53.716Z,49.90
2019-02-27T21:50:25.789Z,46.37
2019-02-27T21:52:58.990Z,48.93
2019-02-27T21:55:30.355Z,51.80
2019-02-27T21:58:02.053Z,52.20
2019-02-27T22:00:34.820Z,49.87
2019-02-27T22:03:06.222Z,50.53
2019-02-27T22:05:42.705Z,47.33
2019-02-27T22:08:11.533Z,48.80
2019-02-27T22:10:43.295Z,48.03
2019-02-27T22:13:14.647Z,50.40
2019-02-27T22:15:46.495Z,49.77
2019-02-27T22:18:18.079Z,46.17
2019-02-27T22:20:50.399Z,48.97
2019-02-27T22:23:21.961Z,49.93
2019-02-27T22:25:53.861Z,47.27
2019-02-27T22:28:25.267Z,47.63
2019-02-27T22:30:56.904Z,49.57
2019-02-27T22:33:28.571Z,51.07
2019-02-27T22:35:59.959Z,52.57
2019-02-27T22:38:32.211Z,49.83
2019-02-27T22:41:03.781Z,49.10
2019-02-27T22:43:35.761Z,49.67
2019-02-27T22:46:07.365Z,47.63
2019-02-27T22:48:39.107Z,48.27
2019-02-27T22:51:12.619Z,50.50
2019-02-27T22:53:50.458Z,50.70
2019-02-27T22:56:21.756Z,48.13
2019-02-27T22:58:53.830Z,51.63
2019-02-27T23:01:29.928Z,50.70
2019-02-27T23:04:05.343Z,47.07
2019-02-27T23:06:36.802Z,50.83
2019-02-27T23:09:12.620Z,45.23
2019-02-27T23:11:44.544Z,44.80
2019-02-27T23:14:18.832Z,47.17
2019-02-27T23:16:48.758Z,48.33
2019-02-27T23:19:20.779Z,46.93
2019-02-27T23:21:52.729Z,45.47
2019-02-27T23:24:24.534Z,43.80
2019-02-27T23:26:56.046Z,47.07
2019-02-27T23:29:27.836Z,45.27
2019-02-27T23:31:59.610Z,45.33
2019-02-27T23:34:32.848Z,45.83
2019-02-27T23:37:04.355Z,42.93
2019-02-27T23:39:39.665Z,46.03
2019-02-27T23:42:10.660Z,44.43
2019-02-27T23:44:42.180Z,45.47
2019-02-27T23:47:13.558Z,43.50
2019-02-27T23:49:44.986Z,49.57
2019-02-27T23:52:19.336Z,47.53
2019-02-27T23:54:51.825Z,46.47
2019-02-27T23:57:24.446Z,45.67
2019-02-27T23:59:56.084Z,45.43
